CZFM/ZFM METAR and TAF weather

Enter ICAO airport designator
Station Type Date Time Source
CZFM METAR 2022/06/28 15:00 UTC NOAA

CZFM 281500Z VRB02KT 15SM SCT080 17/11 A2999 RMK AS3 FU SLP160 DENSITY ALT 300FT


Station Type Date Time Source
CZFM Decoded METAR 2022/06/28 15:00 UTC NOAA

Fort Mcpherson Airport, Canada (CZFM) 67-24N 134-51W
Jun 28, 2022 - 11:00 AM EDT / 2022.06.28 1500 UTC
Wind: Variable at 2 MPH (2 KT):0
Visibility: 15 mile(s):0
Sky conditions: partly cloudy
Temperature: 62 F (17 C)
Dew Point: 51 F (11 C)
Relative Humidity: 67%
Pressure (altimeter): 29.99 in. Hg (1015 hPa)
ob: CZFM 281500Z VRB02KT 15SM SCT080 17/11 A2999 RMK AS3 FU SLP160 DENSITY ALT 300FT
cycle: 15

Station Type Date Time Source
CZFM TAF 2022/06/28 15:00 UTC NOAA

TAF CZFM 281440Z 2815/2823 VRB03KT P6SM FEW080
BECMG 2816/2818 35018KT
FM282200 35018KT P6SM SCT080 BKN200
RMK NXT FCST BY 281900Z

Example: see airport list